sensor_id;sensor_type;location;lat;lon;timestamp;temperature;humidity
11188;DHT22;5650;52.700;7.306;2022-12-28T00:01:35;6.30;99.90
11188;DHT22;5650;52.700;7.306;2022-12-28T00:04:04;6.30;99.90
11188;DHT22;5650;52.700;7.306;2022-12-28T00:06:32;6.30;99.90
11188;DHT22;5650;52.700;7.306;2022-12-28T00:09:02;6.30;99.90
11188;DHT22;5650;52.700;7.306;2022-12-28T00:11:30;6.30;99.90
11188;DHT22;5650;52.700;7.306;2022-12-28T00:13:58;6.30;99.90
11188;DHT22;5650;52.700;7.306;2022-12-28T00:16:29;6.30;99.90
11188;DHT22;5650;52.700;7.306;2022-12-28T00:18:58;6.30;99.90
11188;DHT22;5650;52.700;7.306;2022-12-28T00:21:33;6.30;99.90
11188;DHT22;5650;52.700;7.306;2022-12-28T00:24:01;6.30;99.90
11188;DHT22;5650;52.700;7.306;2022-12-28T00:26:30;6.30;99.90
11188;DHT22;5650;52.700;7.306;2022-12-28T00:28:58;6.30;99.90
11188;DHT22;5650;52.700;7.306;2022-12-28T00:31:32;6.30;99.90
11188;DHT22;5650;52.700;7.306;2022-12-28T00:34:03;6.30;99.90
11188;DHT22;5650;52.700;7.306;2022-12-28T00:36:30;6.30;99.90
11188;DHT22;5650;52.700;7.306;2022-12-28T00:39:00;6.30;99.90
11188;DHT22;5650;52.700;7.306;2022-12-28T00:41:27;6.30;99.90
11188;DHT22;5650;52.700;7.306;2022-12-28T00:43:54;6.30;99.90
11188;DHT22;5650;52.700;7.306;2022-12-28T00:46:27;6.30;99.90
11188;DHT22;5650;52.700;7.306;2022-12-28T00:48:54;6.30;99.90
11188;DHT22;5650;52.700;7.306;2022-12-28T00:51:24;6.30;99.90
11188;DHT22;5650;52.700;7.306;2022-12-28T00:53:52;6.30;99.90
11188;DHT22;5650;52.700;7.306;2022-12-28T00:56:27;6.30;99.90
11188;DHT22;5650;52.700;7.306;2022-12-28T00:58:55;6.30;99.90
11188;DHT22;5650;52.700;7.306;2022-12-28T01:01:26;6.30;99.90
11188;DHT22;5650;52.700;7.306;2022-12-28T01:03:57;6.30;99.90
11188;DHT22;5650;52.700;7.306;2022-12-28T01:06:36;6.30;99.90
11188;DHT22;5650;52.700;7.306;2022-12-28T01:09:04;6.30;99.90
11188;DHT22;5650;52.700;7.306;2022-12-28T01:11:33;6.20;99.90
11188;DHT22;5650;52.700;7.306;2022-12-28T01:14:02;6.20;99.90
11188;DHT22;5650;52.700;7.306;2022-12-28T01:16:34;6.20;99.90
11188;DHT22;5650;52.700;7.306;2022-12-28T01:19:05;6.20;99.90
11188;DHT22;5650;52.700;7.306;2022-12-28T01:21:34;6.20;99.90
11188;DHT22;5650;52.700;7.306;2022-12-28T01:24:03;6.20;99.90
11188;DHT22;5650;52.700;7.306;2022-12-28T01:26:30;6.20;99.90
11188;DHT22;5650;52.700;7.306;2022-12-28T01:28:59;6.20;99.90
11188;DHT22;5650;52.700;7.306;2022-12-28T01:31:29;6.20;99.90
11188;DHT22;5650;52.700;7.306;2022-12-28T01:33:56;6.20;99.90
11188;DHT22;5650;52.700;7.306;2022-12-28T01:36:25;6.20;99.90
11188;DHT22;5650;52.700;7.306;2022-12-28T01:39:00;6.20;99.90
11188;DHT22;5650;52.700;7.306;2022-12-28T01:41:29;6.20;99.90
11188;DHT22;5650;52.700;7.306;2022-12-28T01:47:20;6.10;99.90
11188;DHT22;5650;52.700;7.306;2022-12-28T01:49:53;6.10;99.90
11188;DHT22;5650;52.700;7.306;2022-12-28T01:52:25;6.10;99.90
11188;DHT22;5650;52.700;7.306;2022-12-28T01:55:06;6.10;99.90
11188;DHT22;5650;52.700;7.306;2022-12-28T01:57:40;6.10;99.90
11188;DHT22;5650;52.700;7.306;2022-12-28T02:00:10;6.10;99.90
11188;DHT22;5650;52.700;7.306;2022-12-28T02:02:47;6.10;99.90
11188;DHT22;5650;52.700;7.306;2022-12-28T02:05:15;6.10;99.90
11188;DHT22;5650;52.700;7.306;2022-12-28T02:07:49;6.10;99.90
11188;DHT22;5650;52.700;7.306;2022-12-28T02:10:18;6.10;99.90
11188;DHT22;5650;52.700;7.306;2022-12-28T02:12:45;6.10;99.90
11188;DHT22;5650;52.700;7.306;2022-12-28T02:15:16;6.10;99.90
11188;DHT22;5650;52.700;7.306;2022-12-28T02:17:44;6.10;99.90
11188;DHT22;5650;52.700;7.306;2022-12-28T02:20:11;6.10;99.90
11188;DHT22;5650;52.700;7.306;2022-12-28T02:29:03;6.20;99.90
11188;DHT22;5650;52.700;7.306;2022-12-28T02:31:42;6.20;99.90
11188;DHT22;5650;52.700;7.306;2022-12-28T02:34:15;6.20;99.90
11188;DHT22;5650;52.700;7.306;2022-12-28T02:36:52;6.20;99.90
11188;DHT22;5650;52.700;7.306;2022-12-28T02:39:27;6.20;99.90
11188;DHT22;5650;52.700;7.306;2022-12-28T02:41:56;6.20;99.90
11188;DHT22;5650;52.700;7.306;2022-12-28T02:44:26;6.30;99.90
11188;DHT22;5650;52.700;7.306;2022-12-28T02:47:15;6.30;99.90
11188;DHT22;5650;52.700;7.306;2022-12-28T02:50:05;6.30;99.90
11188;DHT22;5650;52.700;7.306;2022-12-28T02:55:36;6.40;99.90
11188;DHT22;5650;52.700;7.306;2022-12-28T02:58:49;6.40;99.90
11188;DHT22;5650;52.700;7.306;2022-12-28T03:01:33;6.40;99.90
11188;DHT22;5650;52.700;7.306;2022-12-28T03:04:17;6.40;99.90
11188;DHT22;5650;52.700;7.306;2022-12-28T03:06:58;6.50;99.90
11188;DHT22;5650;52.700;7.306;2022-12-28T03:09:49;6.50;99.90
11188;DHT22;5650;52.700;7.306;2022-12-28T03:12:24;6.50;99.90
11188;DHT22;5650;52.700;7.306;2022-12-28T03:14:56;6.50;99.90
11188;DHT22;5650;52.700;7.306;2022-12-28T03:17:30;6.50;99.90
11188;DHT22;5650;52.700;7.306;2022-12-28T03:20:22;6.50;99.90
11188;DHT22;5650;52.700;7.306;2022-12-28T03:23:12;6.50;99.90
11188;DHT22;5650;52.700;7.306;2022-12-28T03:25:58;6.50;99.90
11188;DHT22;5650;52.700;7.306;2022-12-28T03:28:45;6.50;99.90
11188;DHT22;5650;52.700;7.306;2022-12-28T03:31:37;6.50;99.90
11188;DHT22;5650;52.700;7.306;2022-12-28T03:34:06;6.50;99.90
11188;DHT22;5650;52.700;7.306;2022-12-28T03:36:43;6.50;99.90
11188;DHT22;5650;52.700;7.306;2022-12-28T03:39:23;6.60;99.90
11188;DHT22;5650;52.700;7.306;2022-12-28T03:42:00;6.60;99.90
11188;DHT22;5650;52.700;7.306;2022-12-28T03:44:49;6.60;99.90
11188;DHT22;5650;52.700;7.306;2022-12-28T03:47:19;6.60;99.90
11188;DHT22;5650;52.700;7.306;2022-12-28T03:49:49;6.60;99.90
11188;DHT22;5650;52.700;7.306;2022-12-28T03:52:16;6.60;99.90
11188;DHT22;5650;52.700;7.306;2022-12-28T03:54:43;6.60;99.90
11188;DHT22;5650;52.700;7.306;2022-12-28T03:57:13;6.60;99.90
11188;DHT22;5650;52.700;7.306;2022-12-28T03:59:41;6.60;99.90
11188;DHT22;5650;52.700;7.306;2022-12-28T04:02:11;6.60;99.90
11188;DHT22;5650;52.700;7.306;2022-12-28T04:04:39;6.60;99.90
11188;DHT22;5650;52.700;7.306;2022-12-28T04:07:14;6.60;99.90
11188;DHT22;5650;52.700;7.306;2022-12-28T04:09:41;6.60;99.90
11188;DHT22;5650;52.700;7.306;2022-12-28T04:12:09;6.70;99.90
11188;DHT22;5650;52.700;7.306;2022-12-28T04:14:37;6.70;99.90
11188;DHT22;5650;52.700;7.306;2022-12-28T04:17:04;6.70;99.90
11188;DHT22;5650;52.700;7.306;2022-12-28T04:19:31;6.70;99.90
11188;DHT22;5650;52.700;7.306;2022-12-28T04:21:58;6.70;99.90
11188;DHT22;5650;52.700;7.306;2022-12-28T04:24:27;6.70;99.90
11188;DHT22;5650;52.700;7.306;2022-12-28T04:26:57;6.70;99.90
11188;DHT22;5650;52.700;7.306;2022-12-28T04:29:34;6.70;99.90
11188;DHT22;5650;52.700;7.306;2022-12-28T04:32:05;6.70;99.90
11188;DHT22;5650;52.700;7.306;2022-12-28T04:34:35;6.70;99.90
11188;DHT22;5650;52.700;7.306;2022-12-28T04:37:05;6.70;99.90
11188;DHT22;5650;52.700;7.306;2022-12-28T04:39:33;6.70;99.90
11188;DHT22;5650;52.700;7.306;2022-12-28T04:42:01;6.70;99.90
11188;DHT22;5650;52.700;7.306;2022-12-28T04:44:29;6.70;99.90
11188;DHT22;5650;52.700;7.306;2022-12-28T04:46:57;6.70;99.90
11188;DHT22;5650;52.700;7.306;2022-12-28T04:49:24;6.70;99.90
11188;DHT22;5650;52.700;7.306;2022-12-28T04:51:51;6.70;99.90
11188;DHT22;5650;52.700;7.306;2022-12-28T04:54:21;6.70;99.90
11188;DHT22;5650;52.700;7.306;2022-12-28T04:56:50;6.70;99.90
11188;DHT22;5650;52.700;7.306;2022-12-28T04:59:17;6.70;99.90
11188;DHT22;5650;52.700;7.306;2022-12-28T05:01:47;6.70;99.90
11188;DHT22;5650;52.700;7.306;2022-12-28T05:04:14;6.70;99.90
11188;DHT22;5650;52.700;7.306;2022-12-28T05:06:42;6.70;99.90
11188;DHT22;5650;52.700;7.306;2022-12-28T05:09:09;6.70;99.90
11188;DHT22;5650;52.700;7.306;2022-12-28T05:11:36;6.70;99.90
11188;DHT22;5650;52.700;7.306;2022-12-28T05:14:05;6.70;99.90
11188;DHT22;5650;52.700;7.306;2022-12-28T05:16:32;6.70;99.90
11188;DHT22;5650;52.700;7.306;2022-12-28T05:19:00;6.80;99.90
11188;DHT22;5650;52.700;7.306;2022-12-28T05:21:27;6.80;99.90
11188;DHT22;5650;52.700;7.306;2022-12-28T05:23:55;6.80;99.90
11188;DHT22;5650;52.700;7.306;2022-12-28T05:26:24;6.80;99.90
11188;DHT22;5650;52.700;7.306;2022-12-28T05:28:51;6.80;99.90
11188;DHT22;5650;52.700;7.306;2022-12-28T05:31:21;6.90;99.90
11188;DHT22;5650;52.700;7.306;2022-12-28T05:33:49;6.90;99.90
11188;DHT22;5650;52.700;7.306;2022-12-28T05:36:18;6.90;99.90
11188;DHT22;5650;52.700;7.306;2022-12-28T05:38:46;6.90;99.90
11188;DHT22;5650;52.700;7.306;2022-12-28T05:41:15;6.90;99.90
11188;DHT22;5650;52.700;7.306;2022-12-28T05:43:43;7.00;99.90
11188;DHT22;5650;52.700;7.306;2022-12-28T05:46:16;7.00;99.90
11188;DHT22;5650;52.700;7.306;2022-12-28T05:48:45;7.00;99.90
11188;DHT22;5650;52.700;7.306;2022-12-28T05:51:15;7.00;99.90
11188;DHT22;5650;52.700;7.306;2022-12-28T05:53:43;7.10;99.90
11188;DHT22;5650;52.700;7.306;2022-12-28T05:56:12;7.10;99.90
11188;DHT22;5650;52.700;7.306;2022-12-28T05:58:39;7.10;99.90
11188;DHT22;5650;52.700;7.306;2022-12-28T06:01:14;7.10;99.90
11188;DHT22;5650;52.700;7.306;2022-12-28T06:03:42;7.10;99.90
11188;DHT22;5650;52.700;7.306;2022-12-28T06:06:18;7.20;99.90
11188;DHT22;5650;52.700;7.306;2022-12-28T06:08:46;7.20;99.90
11188;DHT22;5650;52.700;7.306;2022-12-28T06:11:18;7.20;99.90
11188;DHT22;5650;52.700;7.306;2022-12-28T06:13:47;7.20;99.90
11188;DHT22;5650;52.700;7.306;2022-12-28T06:16:16;7.20;99.90
11188;DHT22;5650;52.700;7.306;2022-12-28T06:18:44;7.30;99.90
11188;DHT22;5650;52.700;7.306;2022-12-28T06:21:16;7.30;99.90
11188;DHT22;5650;52.700;7.306;2022-12-28T06:23:45;7.30;99.90
11188;DHT22;5650;52.700;7.306;2022-12-28T06:26:17;7.30;99.90
11188;DHT22;5650;52.700;7.306;2022-12-28T06:28:45;7.30;99.90
11188;DHT22;5650;52.700;7.306;2022-12-28T06:31:14;7.40;99.90
11188;DHT22;5650;52.700;7.306;2022-12-28T06:33:42;7.40;99.90
11188;DHT22;5650;52.700;7.306;2022-12-28T06:36:11;7.40;99.90
11188;DHT22;5650;52.700;7.306;2022-12-28T06:38:40;7.50;99.90
11188;DHT22;5650;52.700;7.306;2022-12-28T06:41:12;7.50;99.90
11188;DHT22;5650;52.700;7.306;2022-12-28T06:43:41;7.50;99.90
11188;DHT22;5650;52.700;7.306;2022-12-28T06:46:09;7.50;99.90
11188;DHT22;5650;52.700;7.306;2022-12-28T06:48:36;7.50;99.90
11188;DHT22;5650;52.700;7.306;2022-12-28T06:51:06;7.50;99.90
11188;DHT22;5650;52.700;7.306;2022-12-28T06:53:37;7.50;99.90
11188;DHT22;5650;52.700;7.306;2022-12-28T06:56:11;7.60;99.90
11188;DHT22;5650;52.700;7.306;2022-12-28T06:58:39;7.60;99.90
11188;DHT22;5650;52.700;7.306;2022-12-28T07:01:07;7.60;99.90
11188;DHT22;5650;52.700;7.306;2022-12-28T07:03:35;7.60;99.90
11188;DHT22;5650;52.700;7.306;2022-12-28T07:06:03;7.60;99.90
11188;DHT22;5650;52.700;7.306;2022-12-28T07:08:30;7.70;99.90
11188;DHT22;5650;52.700;7.306;2022-12-28T07:11:01;7.70;99.90
11188;DHT22;5650;52.700;7.306;2022-12-28T07:13:31;7.70;99.90
11188;DHT22;5650;52.700;7.306;2022-12-28T07:16:01;7.70;99.90
11188;DHT22;5650;52.700;7.306;2022-12-28T07:18:28;7.70;99.90
11188;DHT22;5650;52.700;7.306;2022-12-28T07:20:59;7.70;99.90
11188;DHT22;5650;52.700;7.306;2022-12-28T07:23:27;7.70;99.90
11188;DHT22;5650;52.700;7.306;2022-12-28T07:25:56;7.80;99.90
11188;DHT22;5650;52.700;7.306;2022-12-28T07:28:24;7.80;99.90
11188;DHT22;5650;52.700;7.306;2022-12-28T07:30:52;7.80;99.90
11188;DHT22;5650;52.700;7.306;2022-12-28T07:33:20;7.80;99.90
11188;DHT22;5650;52.700;7.306;2022-12-28T07:35:47;7.80;99.90
11188;DHT22;5650;52.700;7.306;2022-12-28T07:38:14;7.80;99.90
11188;DHT22;5650;52.700;7.306;2022-12-28T07:40:41;7.80;99.90
11188;DHT22;5650;52.700;7.306;2022-12-28T07:43:08;7.90;99.90
11188;DHT22;5650;52.700;7.306;2022-12-28T07:45:35;7.90;99.90
11188;DHT22;5650;52.700;7.306;2022-12-28T07:48:04;7.90;99.90
11188;DHT22;5650;52.700;7.306;2022-12-28T07:50:31;7.90;99.90
11188;DHT22;5650;52.700;7.306;2022-12-28T07:53:00;7.90;99.90
11188;DHT22;5650;52.700;7.306;2022-12-28T07:55:27;8.00;99.90
11188;DHT22;5650;52.700;7.306;2022-12-28T07:57:56;8.00;99.90
11188;DHT22;5650;52.700;7.306;2022-12-28T08:00:23;8.00;99.90
11188;DHT22;5650;52.700;7.306;2022-12-28T08:02:54;8.00;99.90
11188;DHT22;5650;52.700;7.306;2022-12-28T08:05:23;8.00;99.90
11188;DHT22;5650;52.700;7.306;2022-12-28T08:07:53;8.00;99.90
11188;DHT22;5650;52.700;7.306;2022-12-28T08:10:24;8.00;99.90
11188;DHT22;5650;52.700;7.306;2022-12-28T08:12:51;8.10;99.90
11188;DHT22;5650;52.700;7.306;2022-12-28T08:15:18;8.10;99.90
11188;DHT22;5650;52.700;7.306;2022-12-28T08:17:48;8.10;99.90
11188;DHT22;5650;52.700;7.306;2022-12-28T08:20:15;8.10;99.90
11188;DHT22;5650;52.700;7.306;2022-12-28T08:22:44;8.10;99.90
11188;DHT22;5650;52.700;7.306;2022-12-28T08:25:14;8.10;99.90
11188;DHT22;5650;52.700;7.306;2022-12-28T08:27:41;8.20;99.90
11188;DHT22;5650;52.700;7.306;2022-12-28T08:30:15;8.20;99.90
11188;DHT22;5650;52.700;7.306;2022-12-28T08:32:42;8.20;99.90
11188;DHT22;5650;52.700;7.306;2022-12-28T08:35:09;8.20;99.90
11188;DHT22;5650;52.700;7.306;2022-12-28T08:37:36;8.20;99.90
11188;DHT22;5650;52.700;7.306;2022-12-28T08:40:06;8.30;99.90
11188;DHT22;5650;52.700;7.306;2022-12-28T08:42:33;8.30;99.90
11188;DHT22;5650;52.700;7.306;2022-12-28T08:45:00;8.30;99.90
11188;DHT22;5650;52.700;7.306;2022-12-28T08:47:28;8.30;99.90
11188;DHT22;5650;52.700;7.306;2022-12-28T08:49:55;8.30;99.90
11188;DHT22;5650;52.700;7.306;2022-12-28T08:52:30;8.30;99.90
11188;DHT22;5650;52.700;7.306;2022-12-28T08:55:00;8.30;99.90
11188;DHT22;5650;52.700;7.306;2022-12-28T08:57:28;8.40;99.90
11188;DHT22;5650;52.700;7.306;2022-12-28T08:59:56;8.40;99.90
11188;DHT22;5650;52.700;7.306;2022-12-28T09:02:23;8.40;99.90
11188;DHT22;5650;52.700;7.306;2022-12-28T09:04:50;8.40;99.90
11188;DHT22;5650;52.700;7.306;2022-12-28T09:07:17;8.40;99.90
11188;DHT22;5650;52.700;7.306;2022-12-28T09:09:44;8.40;99.90
11188;DHT22;5650;52.700;7.306;2022-12-28T09:12:11;8.40;99.90
11188;DHT22;5650;52.700;7.306;2022-12-28T09:14:40;8.40;99.90
11188;DHT22;5650;52.700;7.306;2022-12-28T09:17:07;8.50;99.90
11188;DHT22;5650;52.700;7.306;2022-12-28T09:19:34;8.50;99.90
11188;DHT22;5650;52.700;7.306;2022-12-28T09:22:01;8.50;99.90
11188;DHT22;5650;52.700;7.306;2022-12-28T09:24:29;8.50;99.90
11188;DHT22;5650;52.700;7.306;2022-12-28T09:26:56;8.60;99.90
11188;DHT22;5650;52.700;7.306;2022-12-28T09:29:23;8.60;99.90
11188;DHT22;5650;52.700;7.306;2022-12-28T09:31:51;8.60;99.90
11188;DHT22;5650;52.700;7.306;2022-12-28T09:34:19;8.60;99.90
11188;DHT22;5650;52.700;7.306;2022-12-28T09:36:46;8.60;99.90
11188;DHT22;5650;52.700;7.306;2022-12-28T09:39:15;8.70;99.90
11188;DHT22;5650;52.700;7.306;2022-12-28T09:41:47;8.60;99.90
11188;DHT22;5650;52.700;7.306;2022-12-28T09:44:44;8.70;99.90
11188;DHT22;5650;52.700;7.306;2022-12-28T09:47:26;8.70;99.90
11188;DHT22;5650;52.700;7.306;2022-12-28T09:50:26;8.70;99.90
11188;DHT22;5650;52.700;7.306;2022-12-28T09:53:16;8.70;99.90
11188;DHT22;5650;52.700;7.306;2022-12-28T09:55:52;8.80;99.90
11188;DHT22;5650;52.700;7.306;2022-12-28T09:58:21;8.80;99.90
11188;DHT22;5650;52.700;7.306;2022-12-28T10:00:50;8.80;99.90
11188;DHT22;5650;52.700;7.306;2022-12-28T10:03:21;8.80;99.90
11188;DHT22;5650;52.700;7.306;2022-12-28T10:05:50;8.80;99.90
11188;DHT22;5650;52.700;7.306;2022-12-28T10:08:20;8.80;99.90
11188;DHT22;5650;52.700;7.306;2022-12-28T10:10:50;8.80;99.90
11188;DHT22;5650;52.700;7.306;2022-12-28T10:13:19;8.90;99.90
11188;DHT22;5650;52.700;7.306;2022-12-28T10:15:47;8.90;99.90
11188;DHT22;5650;52.700;7.306;2022-12-28T10:18:20;8.90;99.90
11188;DHT22;5650;52.700;7.306;2022-12-28T10:20:49;8.90;99.90
11188;DHT22;5650;52.700;7.306;2022-12-28T10:23:18;8.90;99.90
11188;DHT22;5650;52.700;7.306;2022-12-28T10:25:47;8.90;99.90
11188;DHT22;5650;52.700;7.306;2022-12-28T10:28:16;9.00;99.90
11188;DHT22;5650;52.700;7.306;2022-12-28T10:30:45;9.00;99.90
11188;DHT22;5650;52.700;7.306;2022-12-28T10:33:16;9.00;99.90
11188;DHT22;5650;52.700;7.306;2022-12-28T10:35:51;9.00;99.90
11188;DHT22;5650;52.700;7.306;2022-12-28T10:38:20;9.00;99.90
11188;DHT22;5650;52.700;7.306;2022-12-28T10:40:55;9.00;99.90
11188;DHT22;5650;52.700;7.306;2022-12-28T10:43:26;9.00;99.90
11188;DHT22;5650;52.700;7.306;2022-12-28T10:45:54;9.00;99.90
11188;DHT22;5650;52.700;7.306;2022-12-28T10:48:25;9.10;99.90
11188;DHT22;5650;52.700;7.306;2022-12-28T10:50:57;9.00;99.90
11188;DHT22;5650;52.700;7.306;2022-12-28T10:53:27;9.10;99.90
11188;DHT22;5650;52.700;7.306;2022-12-28T10:56:04;9.00;99.90
11188;DHT22;5650;52.700;7.306;2022-12-28T10:58:33;9.00;99.90
11188;DHT22;5650;52.700;7.306;2022-12-28T11:01:03;9.00;99.90
11188;DHT22;5650;52.700;7.306;2022-12-28T11:03:32;9.00;99.90
11188;DHT22;5650;52.700;7.306;2022-12-28T11:06:13;9.00;99.90
11188;DHT22;5650;52.700;7.306;2022-12-28T11:08:42;9.00;99.90
11188;DHT22;5650;52.700;7.306;2022-12-28T11:11:18;9.00;99.90
11188;DHT22;5650;52.700;7.306;2022-12-28T11:13:51;9.00;99.90
11188;DHT22;5650;52.700;7.306;2022-12-28T11:16:19;9.10;99.90
11188;DHT22;5650;52.700;7.306;2022-12-28T11:18:47;9.10;99.90
11188;DHT22;5650;52.700;7.306;2022-12-28T11:21:18;9.00;99.90
11188;DHT22;5650;52.700;7.306;2022-12-28T11:23:46;9.10;99.90
11188;DHT22;5650;52.700;7.306;2022-12-28T11:26:13;9.10;99.90
11188;DHT22;5650;52.700;7.306;2022-12-28T11:28:42;9.10;99.90
11188;DHT22;5650;52.700;7.306;2022-12-28T11:31:18;9.00;99.90
11188;DHT22;5650;52.700;7.306;2022-12-28T11:33:49;9.10;99.90
11188;DHT22;5650;52.700;7.306;2022-12-28T11:36:19;9.00;99.90
11188;DHT22;5650;52.700;7.306;2022-12-28T11:38:49;9.00;99.90
11188;DHT22;5650;52.700;7.306;2022-12-28T11:41:41;9.00;99.90
11188;DHT22;5650;52.700;7.306;2022-12-28T11:44:20;9.00;99.90
11188;DHT22;5650;52.700;7.306;2022-12-28T11:47:02;9.00;99.90
11188;DHT22;5650;52.700;7.306;2022-12-28T11:49:33;9.10;99.90
11188;DHT22;5650;52.700;7.306;2022-12-28T11:52:32;9.10;99.90
11188;DHT22;5650;52.700;7.306;2022-12-28T11:55:03;9.10;99.90
11188;DHT22;5650;52.700;7.306;2022-12-28T11:57:48;9.10;99.90
11188;DHT22;5650;52.700;7.306;2022-12-28T12:00:46;9.10;99.90
11188;DHT22;5650;52.700;7.306;2022-12-28T12:03:13;9.10;99.90
11188;DHT22;5650;52.700;7.306;2022-12-28T12:05:49;9.10;99.90
11188;DHT22;5650;52.700;7.306;2022-12-28T12:08:40;9.20;99.90
11188;DHT22;5650;52.700;7.306;2022-12-28T12:11:30;9.20;99.90
11188;DHT22;5650;52.700;7.306;2022-12-28T12:14:01;9.20;99.90
11188;DHT22;5650;52.700;7.306;2022-12-28T12:16:34;9.20;99.90
11188;DHT22;5650;52.700;7.306;2022-12-28T12:19:05;9.20;99.90
11188;DHT22;5650;52.700;7.306;2022-12-28T12:21:36;9.20;99.90
11188;DHT22;5650;52.700;7.306;2022-12-28T12:24:20;9.20;99.90
11188;DHT22;5650;52.700;7.306;2022-12-28T12:26:54;9.20;99.90
11188;DHT22;5650;52.700;7.306;2022-12-28T12:29:27;9.20;99.90
11188;DHT22;5650;52.700;7.306;2022-12-28T12:32:01;9.20;99.90
11188;DHT22;5650;52.700;7.306;2022-12-28T12:34:38;9.20;99.90
11188;DHT22;5650;52.700;7.306;2022-12-28T12:43:18;9.20;99.90
11188;DHT22;5650;52.700;7.306;2022-12-28T12:45:54;9.20;99.90
11188;DHT22;5650;52.700;7.306;2022-12-28T12:48:56;9.20;99.90
11188;DHT22;5650;52.700;7.306;2022-12-28T12:51:30;9.20;99.90
11188;DHT22;5650;52.700;7.306;2022-12-28T12:54:16;9.20;99.90
11188;DHT22;5650;52.700;7.306;2022-12-28T12:56:53;9.20;99.90
11188;DHT22;5650;52.700;7.306;2022-12-28T12:59:44;9.20;99.90
11188;DHT22;5650;52.700;7.306;2022-12-28T13:02:35;9.20;99.90
11188;DHT22;5650;52.700;7.306;2022-12-28T13:05:08;9.20;99.90
11188;DHT22;5650;52.700;7.306;2022-12-28T13:07:40;9.20;99.90
11188;DHT22;5650;52.700;7.306;2022-12-28T13:10:13;9.20;99.90
11188;DHT22;5650;52.700;7.306;2022-12-28T13:12:43;9.20;99.90
11188;DHT22;5650;52.700;7.306;2022-12-28T13:15:15;9.20;99.90
11188;DHT22;5650;52.700;7.306;2022-12-28T13:17:57;9.20;99.90
11188;DHT22;5650;52.700;7.306;2022-12-28T13:20:25;9.20;99.90
11188;DHT22;5650;52.700;7.306;2022-12-28T13:22:52;9.20;99.90
11188;DHT22;5650;52.700;7.306;2022-12-28T13:25:26;9.10;99.90
11188;DHT22;5650;52.700;7.306;2022-12-28T13:27:55;9.20;99.90
11188;DHT22;5650;52.700;7.306;2022-12-28T13:30:24;9.20;99.90
11188;DHT22;5650;52.700;7.306;2022-12-28T13:32:52;9.20;99.90
11188;DHT22;5650;52.700;7.306;2022-12-28T13:35:22;9.20;99.90
11188;DHT22;5650;52.700;7.306;2022-12-28T13:38:02;9.20;99.90
11188;DHT22;5650;52.700;7.306;2022-12-28T13:40:31;9.20;99.90
11188;DHT22;5650;52.700;7.306;2022-12-28T13:46:15;9.20;99.90
11188;DHT22;5650;52.700;7.306;2022-12-28T13:48:45;9.20;99.90
11188;DHT22;5650;52.700;7.306;2022-12-28T13:51:16;9.20;99.90
11188;DHT22;5650;52.700;7.306;2022-12-28T13:53:52;9.20;99.90
11188;DHT22;5650;52.700;7.306;2022-12-28T13:56:21;9.20;99.90
11188;DHT22;5650;52.700;7.306;2022-12-28T13:58:52;9.20;99.90
11188;DHT22;5650;52.700;7.306;2022-12-28T14:01:23;9.20;99.90
11188;DHT22;5650;52.700;7.306;2022-12-28T14:03:58;9.20;99.90
11188;DHT22;5650;52.700;7.306;2022-12-28T14:06:26;9.20;99.90
11188;DHT22;5650;52.700;7.306;2022-12-28T14:08:53;9.20;99.90
11188;DHT22;5650;52.700;7.306;2022-12-28T14:11:28;9.30;99.90
11188;DHT22;5650;52.700;7.306;2022-12-28T14:13:57;9.20;99.90
11188;DHT22;5650;52.700;7.306;2022-12-28T14:16:36;9.30;99.90
11188;DHT22;5650;52.700;7.306;2022-12-28T14:19:07;9.30;99.90
11188;DHT22;5650;52.700;7.306;2022-12-28T14:21:37;9.30;99.90
11188;DHT22;5650;52.700;7.306;2022-12-28T14:24:10;9.30;99.90
11188;DHT22;5650;52.700;7.306;2022-12-28T14:26:39;9.30;99.90
11188;DHT22;5650;52.700;7.306;2022-12-28T14:29:16;9.30;99.90
11188;DHT22;5650;52.700;7.306;2022-12-28T14:31:45;9.30;99.90
11188;DHT22;5650;52.700;7.306;2022-12-28T14:34:30;9.30;99.90
11188;DHT22;5650;52.700;7.306;2022-12-28T14:36:58;9.30;99.90
11188;DHT22;5650;52.700;7.306;2022-12-28T14:39:29;9.30;99.90
11188;DHT22;5650;52.700;7.306;2022-12-28T14:41:58;9.30;99.90
11188;DHT22;5650;52.700;7.306;2022-12-28T14:44:28;9.20;99.90
11188;DHT22;5650;52.700;7.306;2022-12-28T14:46:58;9.30;99.90
11188;DHT22;5650;52.700;7.306;2022-12-28T14:49:34;9.30;99.90
11188;DHT22;5650;52.700;7.306;2022-12-28T14:52:33;9.30;99.90
11188;DHT22;5650;52.700;7.306;2022-12-28T14:55:21;9.30;99.90
11188;DHT22;5650;52.700;7.306;2022-12-28T14:57:56;9.30;99.90
11188;DHT22;5650;52.700;7.306;2022-12-28T15:00:27;9.30;99.90
11188;DHT22;5650;52.700;7.306;2022-12-28T15:02:56;9.30;99.90
11188;DHT22;5650;52.700;7.306;2022-12-28T15:05:42;9.30;99.90
11188;DHT22;5650;52.700;7.306;2022-12-28T15:08:10;9.20;99.90
11188;DHT22;5650;52.700;7.306;2022-12-28T15:10:41;9.20;99.90
11188;DHT22;5650;52.700;7.306;2022-12-28T15:13:12;9.20;99.90
11188;DHT22;5650;52.700;7.306;2022-12-28T15:15:39;9.20;99.90
11188;DHT22;5650;52.700;7.306;2022-12-28T15:18:08;9.20;99.90
11188;DHT22;5650;52.700;7.306;2022-12-28T15:20:36;9.20;99.90
11188;DHT22;5650;52.700;7.306;2022-12-28T15:23:03;9.20;99.90
11188;DHT22;5650;52.700;7.306;2022-12-28T15:25:33;9.20;99.90
11188;DHT22;5650;52.700;7.306;2022-12-28T15:28:06;9.20;99.90
11188;DHT22;5650;52.700;7.306;2022-12-28T15:30:33;9.20;99.90
11188;DHT22;5650;52.700;7.306;2022-12-28T15:33:00;9.20;99.90
11188;DHT22;5650;52.700;7.306;2022-12-28T15:35:29;9.20;99.90
11188;DHT22;5650;52.700;7.306;2022-12-28T15:37:56;9.20;99.90
11188;DHT22;5650;52.700;7.306;2022-12-28T15:40:23;9.20;99.90
11188;DHT22;5650;52.700;7.306;2022-12-28T15:42:51;9.20;99.90
11188;DHT22;5650;52.700;7.306;2022-12-28T15:45:18;9.20;99.90
11188;DHT22;5650;52.700;7.306;2022-12-28T15:47:45;9.20;99.90
11188;DHT22;5650;52.700;7.306;2022-12-28T15:50:12;9.20;99.90
11188;DHT22;5650;52.700;7.306;2022-12-28T15:52:41;9.20;99.90
11188;DHT22;5650;52.700;7.306;2022-12-28T15:55:08;9.20;99.90
11188;DHT22;5650;52.700;7.306;2022-12-28T15:57:36;9.20;99.90
11188;DHT22;5650;52.700;7.306;2022-12-28T16:00:04;9.20;99.90
11188;DHT22;5650;52.700;7.306;2022-12-28T16:02:31;9.20;99.90
11188;DHT22;5650;52.700;7.306;2022-12-28T16:04:58;9.20;99.90
11188;DHT22;5650;52.700;7.306;2022-12-28T16:07:25;9.20;99.90
11188;DHT22;5650;52.700;7.306;2022-12-28T16:09:54;9.20;99.90
11188;DHT22;5650;52.700;7.306;2022-12-28T16:12:21;9.20;99.90
11188;DHT22;5650;52.700;7.306;2022-12-28T16:14:48;9.20;99.90
11188;DHT22;5650;52.700;7.306;2022-12-28T16:17:15;9.20;99.90
11188;DHT22;5650;52.700;7.306;2022-12-28T16:19:43;9.20;99.90
11188;DHT22;5650;52.700;7.306;2022-12-28T16:22:10;9.20;99.90
11188;DHT22;5650;52.700;7.306;2022-12-28T16:24:37;9.20;99.90
11188;DHT22;5650;52.700;7.306;2022-12-28T16:27:06;9.20;99.90
11188;DHT22;5650;52.700;7.306;2022-12-28T16:29:34;9.20;99.90
11188;DHT22;5650;52.700;7.306;2022-12-28T16:32:01;9.20;99.90
11188;DHT22;5650;52.700;7.306;2022-12-28T16:34:29;9.20;99.90
11188;DHT22;5650;52.700;7.306;2022-12-28T16:36:57;9.20;99.90
11188;DHT22;5650;52.700;7.306;2022-12-28T16:39:25;9.20;99.90
11188;DHT22;5650;52.700;7.306;2022-12-28T16:41:53;9.20;99.90
11188;DHT22;5650;52.700;7.306;2022-12-28T16:44:23;9.30;99.90
11188;DHT22;5650;52.700;7.306;2022-12-28T16:46:51;9.20;99.90
11188;DHT22;5650;52.700;7.306;2022-12-28T16:49:21;9.30;99.90
11188;DHT22;5650;52.700;7.306;2022-12-28T16:51:48;9.30;99.90